Time;durP1;ratioP1;P1;durP2;ratioP2;P2;SDS_P1;SDS_P2;PMS_P1;PMS_P2;Temp;Humidity;BMP_temperature;BMP_pressure;BME280_temperature;BME280_humidity;BME280_pressure;Samples;Min_cycle;Max_cycle;Signal;HPM_P1;HPM_P2
2021/12/09 00:01:38;;;;;;;27.90;20.45;;;;;;;13.02;46.11;101213.66;144992;623;6004;-89
2021/12/09 00:04:10;;;;;;;30.55;19.80;;;;;;;13.02;46.30;101212.81;144992;592;6004;-90
2021/12/09 00:06:37;;;;;;;29.17;20.62;;;;;;;13.02;46.24;101208.47;144992;566;6004;-89
2021/12/09 00:09:08;;;;;;;28.17;20.25;;;;;;;13.03;46.71;101215.44;144992;588;6004;-91
2021/12/09 00:11:42;;;;;;;26.70;20.33;;;;;;;13.05;46.45;101223.31;144992;579;6004;-92
2021/12/09 00:14:13;;;;;;;25.95;19.23;;;;;;;13.06;46.31;101222.47;144992;572;6004;-91
2021/12/09 00:16:39;;;;;;;25.75;18.98;;;;;;;13.06;46.32;101218.16;144992;631;6004;-91
2021/12/09 00:19:06;;;;;;;25.33;17.62;;;;;;;13.08;46.28;101215.56;144992;561;6004;-92
2021/12/09 00:21:34;;;;;;;21.08;16.37;;;;;;;13.05;46.13;101211.16;144992;573;6004;-90
2021/12/09 00:24:01;;;;;;;22.65;16.02;;;;;;;13.06;46.15;101212.94;144992;584;6004;-91
2021/12/09 00:26:28;;;;;;;20.23;14.90;;;;;;;13.05;46.22;101216.37;144991;603;6000;-91
2021/12/09 00:28:55;;;;;;;19.25;13.82;;;;;;;13.03;46.04;101206.75;144992;592;6002;-92
2021/12/09 00:31:23;;;;;;;18.27;13.60;;;;;;;13.02;46.10;101208.47;144992;569;6002;-91
2021/12/09 00:33:54;;;;;;;17.70;13.45;;;;;;;13.02;46.00;101224.09;144992;576;6002;-90
2021/12/09 00:36:54;;;;;;;;;;;;;;;;;;;;;
2021/12/09 00:39:32;;;;;;;14.45;10.63;;;;;;;12.97;46.29;101223.09;144992;632;6004;-81
2021/12/09 00:41:59;;;;;;;13.88;8.02;;;;;;;12.92;46.30;101210.75;144992;573;6004;-92
2021/12/09 00:44:25;;;;;;;6.55;4.82;;;;;;;12.94;46.02;101204.75;144992;604;6004;-90
2021/12/09 00:46:53;;;;;;;6.10;4.22;;;;;;;12.94;45.76;101209.97;144992;571;6004;-89
2021/12/09 00:49:24;;;;;;;4.68;3.70;;;;;;;12.95;45.58;101223.87;144992;600;6004;-91
2021/12/09 00:51:55;;;;;;;6.72;3.70;;;;;;;12.94;45.48;101217.78;144992;632;6004;-91
2021/12/09 00:54:33;;;;;;;5.03;3.60;;;;;;;12.94;45.45;101217.78;144992;588;6004;-91
2021/12/09 00:56:59;;;;;;;6.12;3.95;;;;;;;12.93;45.44;101213.41;144992;588;6004;-91
2021/12/09 00:59:29;;;;;;;4.70;3.40;;;;;;;12.97;45.38;101217.88;144991;597;6000;-87
2021/12/09 01:02:02;;;;;;;6.87;3.80;;;;;;;12.98;45.32;101217.06;144992;570;6002;-91
2021/12/09 01:04:30;;;;;;;5.05;3.72;;;;;;;13.00;45.22;101204.06;144992;581;6002;-88
2021/12/09 01:06:58;;;;;;;4.95;3.80;;;;;;;13.01;45.23;101205.81;144992;581;6002;-89
2021/12/09 01:09:25;;;;;;;7.28;4.72;;;;;;;12.99;45.22;101203.16;144992;607;6002;-90
2021/12/09 01:11:53;;;;;;;7.45;5.20;;;;;;;13.00;45.03;101198.84;144992;587;6002;-90
2021/12/09 01:14:19;;;;;;;8.15;5.53;;;;;;;13.00;44.94;101204.06;144992;605;6002;-89
2021/12/09 01:16:47;;;;;;;7.75;5.32;;;;;;;12.99;45.25;101208.38;144992;580;6002;-87
2021/12/09 01:19:14;;;;;;;8.23;5.62;;;;;;;12.97;45.01;101212.66;144992;565;6002;-92
2021/12/09 01:21:41;;;;;;;8.10;5.47;;;;;;;12.98;45.08;101216.16;144992;571;6003;-91
2021/12/09 01:24:15;;;;;;;7.78;5.70;;;;;;;12.97;45.10;101209.19;144992;745;6002;-90
2021/12/09 01:26:52;;;;;;;7.28;5.72;;;;;;;12.98;45.22;101216.16;144992;730;6002;-81
2021/12/09 01:29:36;;;;;;;9.48;6.20;;;;;;;12.98;45.17;101209.22;144992;592;6003;-80
2021/12/09 01:32:13;;;;;;;9.75;6.32;;;;;;;12.98;45.26;101205.72;144992;586;6002;-91
2021/12/09 01:34:41;;;;;;;8.40;5.78;;;;;;;12.96;45.25;101202.19;144992;576;6002;-91
2021/12/09 01:37:10;;;;;;;7.00;4.62;;;;;;;12.97;45.23;101198.78;144992;615;6002;-91
2021/12/09 01:39:37;;;;;;;5.97;4.68;;;;;;;12.98;45.04;101198.81;144991;605;6002;-92
2021/12/09 01:42:04;;;;;;;6.15;4.43;;;;;;;12.94;45.09;101217.78;144992;563;6002;-89
2021/12/09 01:44:32;;;;;;;5.93;4.18;;;;;;;12.93;45.19;101208.19;144992;611;6002;-90
2021/12/09 01:47:00;;;;;;;6.22;3.80;;;;;;;12.94;45.20;101211.72;144992;614;6002;-92
2021/12/09 01:49:27;;;;;;;4.50;3.40;;;;;;;12.94;45.32;101212.59;144992;626;6002;-91
2021/12/09 01:51:55;;;;;;;4.50;3.37;;;;;;;12.92;45.18;101214.28;144992;583;6002;-89
2021/12/09 01:54:25;;;;;;;4.80;3.40;;;;;;;12.90;45.27;101210.75;144992;600;6002;-88
2021/12/09 01:56:55;;;;;;;4.05;3.00;;;;;;;12.90;45.22;101205.53;144992;587;6002;-91
2021/12/09 01:59:21;;;;;;;4.00;2.97;;;;;;;12.87;45.38;101200.25;144992;603;6002;-89
2021/12/09 02:01:52;;;;;;;3.45;2.33;;;;;;;12.87;45.31;101200.25;144992;579;6002;-92
2021/12/09 02:04:19;;;;;;;3.15;2.35;;;;;;;12.86;45.22;101199.34;144992;565;6002;-90
2021/12/09 02:06:48;;;;;;;2.58;2.17;;;;;;;12.86;45.32;101207.16;144992;564;6002;-93
2021/12/09 02:09:20;;;;;;;5.62;2.65;;;;;;;12.86;45.25;101214.09;144992;585;6002;-91
2021/12/09 02:11:47;;;;;;;4.65;2.42;;;;;;;12.84;45.41;101207.97;144992;655;6002;-90
2021/12/09 02:14:14;;;;;;;2.72;2.37;;;;;;;12.84;45.23;101200.16;144992;569;6002;-89
2021/12/09 02:16:41;;;;;;;2.85;2.08;;;;;;;12.83;45.29;101198.38;144992;576;6002;-89
2021/12/09 02:19:11;;;;;;;3.58;2.20;;;;;;;12.80;45.25;101195.69;144992;589;6002;-88
2021/12/09 02:21:37;;;;;;;4.10;2.25;;;;;;;12.79;45.35;101197.41;144992;646;6003;-89
2021/12/09 02:24:10;;;;;;;3.40;2.37;;;;;;;12.76;45.42;101193.81;144992;605;6002;-89
2021/12/09 02:26:43;;;;;;;4.82;2.67;;;;;;;12.75;45.40;101197.28;144992;649;6002;-89
2021/12/09 02:29:12;;;;;;;4.68;2.55;;;;;;;12.72;45.47;101199.78;144992;572;6003;-89
2021/12/09 02:31:40;;;;;;;3.50;2.12;;;;;;;12.71;45.44;101198.91;144992;648;6002;-90
2021/12/09 02:34:08;;;;;;;4.97;3.15;;;;;;;12.70;45.52;101194.53;144992;713;6002;-89
2021/12/09 02:36:38;;;;;;;4.07;2.22;;;;;;;12.69;45.35;101190.16;144992;598;6002;-89
2021/12/09 02:39:11;;;;;;;2.95;1.90;;;;;;;12.68;45.30;101193.63;144992;577;6002;-91
2021/12/09 02:41:38;;;;;;;3.10;2.00;;;;;;;12.67;45.33;101184.03;144992;590;6002;-89
2021/12/09 02:44:09;;;;;;;2.25;1.92;;;;;;;12.69;45.17;101190.16;144992;597;6002;-91
2021/12/09 02:46:39;;;;;;;2.75;1.70;;;;;;;12.67;45.15;101182.31;144992;569;6002;-91
2021/12/09 02:49:14;;;;;;;2.00;1.60;;;;;;;12.67;45.14;101181.44;144992;592;6002;-90
2021/12/09 02:51:43;;;;;;;2.83;1.70;;;;;;;12.66;45.08;101175.34;144992;585;6002;-92
2021/12/09 02:54:15;;;;;;;3.10;1.50;;;;;;;12.66;45.08;101164.94;144992;576;6002;-92
2021/12/09 02:56:43;;;;;;;3.42;1.80;;;;;;;12.68;45.05;101165.84;144992;663;6002;-91
2021/12/09 02:59:12;;;;;;;2.28;1.80;;;;;;;12.69;44.80;101164.09;144992;588;6002;-92
2021/12/09 03:01:54;;;;;;;2.70;1.75;;;;;;;12.67;45.06;101161.47;144992;607;6002;-89
2021/12/09 03:04:21;;;;;;;3.92;2.87;;;;;;;12.67;45.06;101166.66;144992;607;6002;-91
2021/12/09 03:06:50;;;;;;;4.87;2.70;;;;;;;12.56;45.04;101167.22;144992;564;6002;-89
2021/12/09 03:09:19;;;;;;;2.55;2.17;;;;;;;12.57;44.95;101172.47;144992;613;6002;-89
2021/12/09 03:11:53;;;;;;;2.75;1.80;;;;;;;12.55;45.03;101171.56;144992;569;6002;-92
2021/12/09 03:14:21;;;;;;;2.40;1.70;;;;;;;12.54;44.90;101159.34;144992;646;6002;-90
2021/12/09 03:16:48;;;;;;;2.65;1.90;;;;;;;12.56;44.82;101164.62;144992;680;6002;-90
2021/12/09 03:19:15;;;;;;;2.75;1.80;;;;;;;12.57;45.04;101175.06;144992;676;6002;-90
2021/12/09 03:21:45;;;;;;;3.50;2.30;;;;;;;12.59;45.09;101177.72;144992;618;6002;-90
2021/12/09 03:24:21;;;;;;;2.50;2.05;;;;;;;12.62;44.98;101175.22;144992;697;6002;-90
2021/12/09 03:26:54;;;;;;;3.97;2.20;;;;;;;12.62;45.09;101178.69;144992;581;6002;-90
2021/12/09 03:29:23;;;;;;;3.12;2.10;;;;;;;12.60;44.95;101174.25;144991;574;6002;-92
2021/12/09 03:31:51;;;;;;;3.65;2.08;;;;;;;12.58;45.05;101173.34;144992;632;6002;-88
2021/12/09 03:34:20;;;;;;;4.37;2.50;;;;;;;12.58;45.12;101169.00;144992;604;6002;-89
2021/12/09 03:36:50;;;;;;;4.05;2.72;;;;;;;12.59;45.11;101176.00;144992;591;6002;-90
2021/12/09 03:39:20;;;;;;;6.53;3.72;;;;;;;12.59;45.22;101162.09;144992;659;6011;-89
2021/12/09 03:41:50;;;;;;;8.30;5.70;;;;;;;12.61;45.64;101173.44;144992;573;6002;-90
2021/12/09 03:44:21;;;;;;;12.25;7.05;;;;;;;12.60;45.63;101171.66;144992;570;6002;-89
2021/12/09 03:46:50;;;;;;;11.07;7.70;;;;;;;12.60;45.87;101166.44;144992;573;6002;-93
2021/12/09 03:49:17;;;;;;;16.15;8.90;;;;;;;12.60;45.85;101169.06;144992;569;6002;-92
2021/12/09 03:51:43;;;;;;;10.32;8.05;;;;;;;12.59;45.98;101162.97;144992;629;6002;-91
2021/12/09 03:54:11;;;;;;;11.27;7.85;;;;;;;12.58;46.02;101161.19;144991;594;6002;-93
2021/12/09 03:56:39;;;;;;;10.95;8.27;;;;;;;12.58;46.07;101155.97;144992;586;6002;-90
2021/12/09 03:59:31;;;;;;;12.32;8.95;;;;;;;12.60;45.94;101156.94;144992;592;6002;-79
2021/12/09 04:02:33;;;;;;;10.90;7.70;;;;;;;12.61;46.04;101157.81;144992;600;6002;-80
2021/12/09 04:05:03;;;;;;;9.80;6.82;;;;;;;12.57;45.91;101163.78;144992;567;6005;-90
2021/12/09 04:07:30;;;;;;;11.57;7.82;;;;;;;12.57;46.05;101166.38;144992;589;6004;-91
2021/12/09 04:09:59;;;;;;;12.65;7.95;;;;;;;12.58;45.87;101174.22;144992;583;6004;-87
2021/12/09 04:12:25;;;;;;;10.95;7.35;;;;;;;12.56;46.13;101173.28;144992;572;6004;-90
2021/12/09 04:15:03;;;;;;;9.43;7.00;;;;;;;12.59;46.12;101180.31;144992;600;6004;-90
2021/12/09 04:17:30;;;;;;;11.00;7.10;;;;;;;12.59;46.19;101189.00;144992;648;6004;-91
2021/12/09 04:20:24;;;;;;;9.80;6.97;;;;;;;12.60;46.44;101188.19;144992;589;6004;-89
2021/12/09 04:22:56;;;;;;;12.57;7.00;;;;;;;12.59;46.33;101189.00;144992;566;6002;-91
2021/12/09 04:25:25;;;;;;;7.53;5.80;;;;;;;12.59;46.52;101188.12;144992;640;6002;-91
2021/12/09 04:28:15;;;;;;;9.82;6.28;;;;;;;12.61;46.48;101186.47;144993;571;6002;-91
2021/12/09 04:30:52;;;;;;;9.55;6.82;;;;;;;12.62;46.68;101194.31;144993;572;6002;-81
2021/12/09 04:33:31;;;;;;;10.43;7.40;;;;;;;12.64;46.88;101194.34;144993;565;6002;-81
2021/12/09 04:36:31;;;;;;;12.85;7.57;;;;;;;12.65;46.71;101199.63;144993;639;6002;-77
2021/12/09 04:39:44;;;;;;;12.40;8.13;;;;;;;12.60;46.86;101198.59;144993;563;6002;-87
2021/12/09 04:42:33;;;;;;;11.70;7.93;;;;;;;12.60;46.84;101201.22;144993;577;6000;-80
2021/12/09 04:45:08;;;;;;;11.55;7.87;;;;;;;12.44;47.92;101209.38;144993;593;6002;-80
2021/12/09 04:47:40;;;;;;;13.00;7.72;;;;;;;12.51;47.32;101208.75;144993;635;6002;-82
2021/12/09 04:50:16;;;;;;;11.57;7.80;;;;;;;12.53;47.22;101222.69;144993;644;6002;-91
2021/12/09 04:52:53;;;;;;;11.85;7.60;;;;;;;12.55;47.09;101223.63;144993;652;6002;-89
2021/12/09 04:55:20;;;;;;;10.10;6.75;;;;;;;12.46;47.35;101225.97;144993;651;6002;-89
2021/12/09 04:57:47;;;;;;;9.95;5.57;;;;;;;12.47;47.41;101226.00;144993;591;6002;-90
2021/12/09 05:00:20;;;;;;;7.50;4.82;;;;;;;12.49;47.10;101229.53;144992;571;6002;-87
2021/12/09 05:03:06;;;;;;;8.68;4.37;;;;;;;12.50;46.76;101222.59;144992;579;6002;-89
2021/12/09 05:05:41;;;;;;;7.62;3.60;;;;;;;12.50;46.58;101220.91;144992;594;6002;-89
2021/12/09 05:08:19;;;;;;;12.75;3.80;;;;;;;12.40;46.41;101228.38;144992;573;6002;-90
2021/12/09 05:11:31;;;;;;;9.95;3.65;;;;;;;12.40;46.65;101225.78;144992;564;6002;-82
2021/12/09 05:14:09;;;;;;;9.00;3.55;;;;;;;12.44;46.24;101225.00;144993;584;6000;-92
2021/12/09 05:16:49;;;;;;;5.50;3.40;;;;;;;12.45;46.11;101222.44;144993;589;6002;-87
2021/12/09 05:19:40;;;;;;;8.43;3.67;;;;;;;12.46;45.99;101228.56;144993;619;6002;-81
2021/12/09 05:22:32;;;;;;;;;;;;;;;12.46;45.77;101216.41;144997;914;6002;-82
2021/12/09 05:25:08;;;;;;;6.12;3.15;;;;;;;12.45;45.67;101212.03;144997;610;6002;-89
2021/12/09 05:27:45;;;;;;;7.55;3.20;;;;;;;12.47;45.56;101217.28;144993;572;6003;-88
2021/12/09 05:30:27;;;;;;;8.77;3.20;;;;;;;12.45;45.73;101214.62;144993;618;6002;-88
2021/12/09 05:32:57;;;;;;;4.53;2.75;;;;;;;12.43;45.93;101207.63;144992;577;6002;-89
2021/12/09 05:35:24;;;;;;;7.40;3.45;;;;;;;12.43;45.67;101215.44;144993;630;6002;-86
2021/12/09 05:37:51;;;;;;;6.68;3.40;;;;;;;12.35;45.90;101217.81;144993;605;6002;-87
2021/12/09 05:40:21;;;;;;;3.80;2.90;;;;;;;12.22;46.07;101213.09;144993;610;6002;-88
2021/12/09 05:42:48;;;;;;;9.13;3.35;;;;;;;12.08;46.18;101215.25;144993;604;6002;-86
2021/12/09 05:45:15;;;;;;;4.85;3.20;;;;;;;12.08;46.42;101213.53;144993;738;6002;-86
2021/12/09 05:47:41;;;;;;;6.22;3.67;;;;;;;12.09;46.47;101201.38;144993;618;6002;-87
2021/12/09 05:50:11;;;;;;;8.05;3.60;;;;;;;12.14;46.64;101210.25;144993;569;6002;-88
2021/12/09 05:52:39;;;;;;;8.32;3.80;;;;;;;12.15;46.58;101214.59;144993;572;6002;-85
2021/12/09 05:55:10;;;;;;;9.77;4.10;;;;;;;12.21;46.77;101208.72;144993;615;6002;-85
2021/12/09 05:57:45;;;;;;;8.25;4.10;;;;;;;12.23;46.76;101200.09;144993;612;6002;-87
2021/12/09 06:00:15;;;;;;;9.10;4.20;;;;;;;12.30;46.81;101194.25;144993;677;6002;-86
2021/12/09 06:02:41;;;;;;;8.55;3.92;;;;;;;12.45;46.99;101185.13;144993;609;6002;-86
2021/12/09 06:05:08;;;;;;;6.93;4.10;;;;;;;12.78;46.43;101194.75;144994;570;5002;-88
2021/12/09 06:07:35;;;;;;;6.25;3.75;;;;;;;13.22;46.12;101195.09;144994;634;5002;-89
2021/12/09 06:10:03;;;;;;;12.77;3.83;;;;;;;13.70;45.45;101191.12;144994;661;5002;-85
2021/12/09 06:12:30;;;;;;;7.50;3.37;;;;;;;14.19;44.90;101186.16;144994;590;5002;-82
2021/12/09 06:14:57;;;;;;;9.75;3.10;;;;;;;14.65;44.11;101179.34;144994;586;5002;-85
2021/12/09 06:17:25;;;;;;;6.78;4.03;;;;;;;15.09;43.88;101188.91;144994;608;5002;-83
2021/12/09 06:19:52;;;;;;;9.95;4.07;;;;;;;15.50;43.39;101181.81;144994;596;5003;-85
2021/12/09 06:22:18;;;;;;;8.38;3.62;;;;;;;15.87;43.04;101179.81;144994;588;5002;-84
2021/12/09 06:24:46;;;;;;;10.35;5.32;;;;;;;16.28;41.86;101183.88;144994;604;5002;-84
2021/12/09 06:27:13;;;;;;;16.27;5.62;;;;;;;16.63;41.91;101186.09;144994;570;5003;-84
2021/12/09 06:29:40;;;;;;;9.73;4.35;;;;;;;16.90;41.57;101200.44;144994;614;5002;-85
2021/12/09 06:32:08;;;;;;;10.82;4.55;;;;;;;17.09;40.77;101197.13;144994;565;5002;-84
2021/12/09 06:34:35;;;;;;;11.50;4.85;;;;;;;17.20;41.24;101207.75;144994;566;5002;-84
2021/12/09 06:37:03;;;;;;;8.20;4.72;;;;;;;17.32;41.12;101209.59;144994;618;5002;-84
2021/12/09 06:39:30;;;;;;;9.65;5.10;;;;;;;17.34;41.69;101202.63;144994;606;5002;-85
2021/12/09 06:41:56;;;;;;;11.07;5.62;;;;;;;17.37;41.86;101208.78;144994;611;5002;-84
2021/12/09 06:44:23;;;;;;;10.32;5.68;;;;;;;17.46;41.34;101210.59;144994;582;5002;-83
2021/12/09 06:46:50;;;;;;;16.45;5.90;;;;;;;17.54;41.32;101203.69;144994;569;5002;-85
2021/12/09 06:49:17;;;;;;;12.02;6.65;;;;;;;17.66;41.92;101205.56;144994;564;5002;-84
2021/12/09 06:51:44;;;;;;;12.37;6.93;;;;;;;17.79;41.37;101208.28;144994;566;5002;-85
2021/12/09 06:54:11;;;;;;;14.87;7.62;;;;;;;17.93;41.61;101209.28;144994;617;5002;-85
2021/12/09 06:56:37;;;;;;;11.52;6.80;;;;;;;18.02;41.16;101225.09;144994;570;5002;-82
2021/12/09 06:59:05;;;;;;;14.82;6.95;;;;;;;18.12;41.22;101215.56;144994;647;5002;-85
2021/12/09 07:01:32;;;;;;;10.80;7.30;;;;;;;18.16;40.74;101226.97;144994;577;5002;-83
2021/12/09 07:03:58;;;;;;;14.50;7.25;;;;;;;18.25;41.20;101234.91;144994;593;5002;-84
2021/12/09 07:06:26;;;;;;;15.32;7.18;;;;;;;18.38;40.46;101228.84;144994;616;5002;-85
2021/12/09 07:08:54;;;;;;;12.32;6.85;;;;;;;18.44;40.63;101222.75;144994;566;5002;-85
2021/12/09 07:11:21;;;;;;;13.80;7.43;;;;;;;18.48;40.58;101228.03;144994;604;5002;-87
2021/12/09 07:13:48;;;;;;;14.82;6.97;;;;;;;18.47;39.93;101244.66;144994;626;5002;-85
2021/12/09 07:16:15;;;;;;;16.55;6.82;;;;;;;18.25;39.82;101232.28;144994;709;5002;-86
2021/12/09 07:18:43;;;;;;;13.10;7.07;;;;;;;18.09;39.78;101232.16;144994;582;5002;-87
2021/12/09 07:21:10;;;;;;;13.65;7.30;;;;;;;18.03;40.26;101236.50;144994;653;5002;-87
2021/12/09 07:23:38;;;;;;;13.85;7.50;;;;;;;17.96;40.19;101240.84;144994;582;5002;-85
2021/12/09 07:26:12;;;;;;;11.68;6.75;;;;;;;17.94;40.50;101230.31;144994;602;5002;-90
2021/12/09 07:28:52;;;;;;;16.05;9.35;;;;;;;17.88;40.45;101232.91;144994;583;5002;-86
2021/12/09 07:31:19;;;;;;;14.30;8.35;;;;;;;17.75;40.47;101234.50;144994;566;5002;-88
2021/12/09 07:33:48;;;;;;;14.20;9.55;;;;;;;17.23;39.67;101194.66;144994;635;5002;-85
2021/12/09 07:36:14;;;;;;;12.65;9.68;;;;;;;16.98;40.91;101210.13;144994;626;5002;-85
2021/12/09 07:38:41;;;;;;;17.58;10.85;;;;;;;16.93;41.56;101227.56;144994;663;5002;-86
2021/12/09 07:41:08;;;;;;;15.77;10.75;;;;;;;16.94;41.33;101205.72;144994;608;5002;-85
2021/12/09 07:43:35;;;;;;;13.95;10.25;;;;;;;17.02;41.64;101195.28;144994;589;5002;-89
2021/12/09 07:46:01;;;;;;;11.35;8.57;;;;;;;17.15;41.28;101202.44;144994;572;5002;-85
2021/12/09 07:48:29;;;;;;;10.77;8.52;;;;;;;17.34;41.51;101194.75;144994;584;5002;-86
2021/12/09 07:50:56;;;;;;;16.87;8.88;;;;;;;17.54;41.69;101208.06;144994;622;5002;-86
2021/12/09 07:53:23;;;;;;;12.55;9.10;;;;;;;17.70;41.68;101206.44;144994;569;5002;-87
2021/12/09 07:55:51;;;;;;;12.07;8.55;;;;;;;17.86;41.64;101197.81;144994;616;5002;-85
2021/12/09 07:58:18;;;;;;;14.52;9.02;;;;;;;18.03;41.19;101200.59;144994;564;5002;-86
2021/12/09 08:00:46;;;;;;;18.15;10.45;;;;;;;18.22;41.11;101205.97;144994;610;5002;-86
2021/12/09 08:03:13;;;;;;;20.92;12.27;;;;;;;18.36;41.40;101206.94;144994;573;5002;-85
2021/12/09 08:05:44;;;;;;;24.15;12.52;;;;;;;18.53;40.84;101206.13;144994;564;5002;-87
2021/12/09 08:08:11;;;;;;;18.23;11.30;;;;;;;18.67;41.40;101209.69;144994;604;5002;-85
2021/12/09 08:10:38;;;;;;;15.35;9.23;;;;;;;18.84;40.86;101207.19;144994;574;5002;-85
2021/12/09 08:13:08;;;;;;;21.30;9.35;;;;;;;18.97;40.95;101192.31;144994;566;5002;-86
2021/12/09 08:15:39;;;;;;;15.40;8.27;;;;;;;19.05;41.18;101192.31;144994;571;5002;-86
2021/12/09 08:18:25;;;;;;;25.30;15.20;;;;;;;19.15;40.67;101186.19;144994;582;5002;-87
2021/12/09 08:20:55;;;;;;;17.15;11.88;;;;;;;19.25;40.60;101180.09;144994;589;5002;-84
2021/12/09 08:23:25;;;;;;;20.12;12.40;;;;;;;19.32;40.62;101183.59;144994;607;5002;-86
2021/12/09 08:25:54;;;;;;;19.25;12.63;;;;;;;19.39;40.65;101175.72;144994;597;5002;-87
2021/12/09 08:28:20;;;;;;;17.58;10.93;;;;;;;19.50;40.19;101159.94;144994;579;5002;-84
2021/12/09 08:30:50;;;;;;;14.18;9.30;;;;;;;19.55;40.40;101165.16;144994;574;5002;-85
2021/12/09 08:33:23;;;;;;;13.13;8.50;;;;;;;19.60;40.27;101149.37;144994;591;5002;-85
2021/12/09 08:35:51;;;;;;;14.27;8.75;;;;;;;19.66;40.50;101144.09;144994;564;5002;-86
2021/12/09 08:38:18;;;;;;;15.80;8.82;;;;;;;19.78;40.37;101151.16;144994;638;5002;-86
2021/12/09 08:40:46;;;;;;;15.10;9.07;;;;;;;19.85;40.34;101143.25;144994;582;5002;-84
2021/12/09 08:43:13;;;;;;;17.40;9.18;;;;;;;19.93;40.22;101146.75;144994;672;5002;-83
2021/12/09 08:45:40;;;;;;;15.38;9.38;;;;;;;20.00;40.12;101131.78;144994;569;5002;-84
2021/12/09 08:48:10;;;;;;;19.87;10.25;;;;;;;20.05;40.15;101126.50;144993;588;5002;-82
2021/12/09 08:50:37;;;;;;;14.63;8.75;;;;;;;20.11;40.18;101129.13;144994;640;5002;-86
2021/12/09 08:53:08;;;;;;;11.90;7.53;;;;;;;20.11;39.96;101142.31;144994;564;5002;-85
2021/12/09 08:55:37;;;;;;;10.60;6.00;;;;;;;20.09;40.44;101144.03;144994;575;5002;-86
2021/12/09 08:58:05;;;;;;;8.98;5.28;;;;;;;20.14;40.25;101152.84;144994;569;5002;-86
2021/12/09 09:00:32;;;;;;;8.30;5.65;;;;;;;20.18;40.61;101158.97;144994;587;5002;-86
2021/12/09 09:02:59;;;;;;;10.48;6.10;;;;;;;20.20;40.72;101160.72;144994;599;5002;-86
2021/12/09 09:05:30;;;;;;;9.40;5.78;;;;;;;20.27;40.76;101151.91;144994;570;5002;-86
2021/12/09 09:08:00;;;;;;;12.93;6.20;;;;;;;20.32;40.94;101154.53;144994;571;5002;-84
2021/12/09 09:10:29;;;;;;;6.97;5.28;;;;;;;20.46;40.65;101157.12;144994;651;5002;-84
2021/12/09 09:12:55;;;;;;;9.57;5.50;;;;;;;20.51;40.41;101154.47;144994;589;5002;-85
2021/12/09 09:15:25;;;;;;;9.00;5.43;;;;;;;20.44;40.74;101130.75;144994;599;5002;-85
2021/12/09 09:17:53;;;;;;;7.70;5.55;;;;;;;20.46;40.87;101130.75;144994;613;5002;-86
2021/12/09 09:20:22;;;;;;;9.93;5.43;;;;;;;20.45;41.04;101118.44;144994;583;5002;-85
2021/12/09 09:22:49;;;;;;;11.93;6.03;;;;;;;20.56;41.02;101119.25;144994;574;5002;-85
2021/12/09 09:25:20;;;;;;;9.05;5.72;;;;;;;20.68;40.65;101115.72;144994;587;5002;-83
2021/12/09 09:27:48;;;;;;;7.93;5.62;;;;;;;20.49;39.85;101125.47;144994;577;5002;-84
2021/12/09 09:30:18;;;;;;;7.20;5.10;;;;;;;20.59;40.89;101118.37;144994;658;5002;-84
2021/12/09 09:32:46;;;;;;;8.85;5.30;;;;;;;20.63;40.94;101120.09;144994;637;5002;-86
2021/12/09 09:35:13;;;;;;;6.68;4.32;;;;;;;19.86;41.88;101115.13;144994;648;5002;-85
2021/12/09 09:37:40;;;;;;;4.75;3.58;;;;;;;19.52;42.82;101110.78;144994;585;5002;-86
2021/12/09 09:40:11;;;;;;;6.90;2.80;;;;;;;19.44;42.82;101099.38;144994;569;5002;-84
2021/12/09 09:45:25;;;;;;;6.30;3.33;;;;;;;19.14;43.79;101095.00;144994;603;5004;-84
2021/12/09 09:47:55;;;;;;;5.60;3.05;;;;;;;19.29;43.36;101068.66;144994;609;5004;-85
2021/12/09 09:50:22;;;;;;;5.53;4.15;;;;;;;19.30;44.84;101080.09;144994;580;5004;-84
2021/12/09 09:52:51;;;;;;;8.05;4.90;;;;;;;19.43;43.67;101076.53;144994;603;5004;-86
2021/12/09 09:55:21;;;;;;;7.60;3.85;;;;;;;19.65;43.55;101068.63;144994;568;5004;-83
2021/12/09 09:57:50;;;;;;;4.90;3.78;;;;;;;19.37;44.59;101069.53;144994;562;5004;-84
2021/12/09 10:00:22;;;;;;;3.22;2.58;;;;;;;18.88;44.30;101066.03;144994;579;5004;-86
2021/12/09 10:03:01;;;;;;;4.05;2.28;;;;;;;18.39;44.78;101065.03;144994;568;5004;-87
2021/12/09 10:05:36;;;;;;;5.03;1.70;;;;;;;18.36;44.85;101065.00;144994;589;5004;-86
2021/12/09 10:08:04;;;;;;;2.67;1.70;;;;;;;18.07;45.41;101055.28;144994;601;5004;-85
2021/12/09 10:10:33;;;;;;;4.90;1.62;;;;;;;18.18;45.37;101050.03;144994;594;5004;-83
2021/12/09 10:13:09;;;;;;;2.67;1.58;;;;;;;17.91;45.47;101038.56;144994;585;5004;-85
2021/12/09 10:15:43;;;;;;;3.70;2.45;;;;;;;17.90;44.96;101036.81;144994;571;5004;-86
2021/12/09 10:18:11;;;;;;;4.78;2.33;;;;;;;17.58;46.27;101040.09;144994;568;5004;-84
2021/12/09 10:20:48;;;;;;;4.07;2.00;;;;;;;17.94;44.69;101042.94;144994;576;5004;-86
2021/12/09 10:23:48;;;;;;;5.00;2.55;;;;;;;17.96;44.71;101035.97;144994;584;5004;-86
2021/12/09 10:26:24;;;;;;;6.70;2.05;;;;;;;17.86;45.53;101024.47;144994;600;5004;-85
2021/12/09 10:29:18;;;;;;;11.90;3.97;;;;;;;18.20;44.85;101001.03;144994;609;5004;-89
2021/12/09 10:31:58;;;;;;;5.93;3.30;;;;;;;17.76;45.93;101020.06;144994;571;5002;-86
2021/12/09 10:34:41;;;;;;;11.23;5.43;;;;;;;17.99;45.12;101012.34;144994;607;5002;-85
2021/12/09 10:37:25;;;;;;;4.97;2.95;;;;;;;17.62;45.73;101012.12;144994;583;5002;-87
2021/12/09 10:39:55;;;;;;;5.22;1.80;;;;;;;17.88;45.20;101009.66;144994;772;5002;-85
2021/12/09 10:42:24;;;;;;;4.75;1.40;;;;;;;17.76;46.41;101017.44;144994;649;4567;-87
2021/12/09 10:44:55;;;;;;;5.22;2.60;;;;;;;17.79;46.56;101004.34;144994;604;4572;-86
2021/12/09 10:50:37;;;;;;;9.63;5.82;;;;;;;17.75;45.34;100978.91;144992;559;6004;-86
2021/12/09 10:53:47;;;;;;;8.13;3.28;;;;;;;17.92;44.96;100966.78;144992;645;6002;-84
2021/12/09 10:56:10;;;;;;;2.78;1.33;;;;;;;17.81;45.04;100963.19;144992;623;6004;-86
2021/12/09 10:58:39;;;;;;;5.43;1.48;;;;;;;17.71;45.41;100966.66;144992;562;6004;-86
2021/12/09 11:01:13;;;;;;;5.85;2.62;;;;;;;17.75;46.01;100964.06;144992;591;6004;-85
2021/12/09 11:03:44;;;;;;;2.95;0.90;;;;;;;18.14;45.35;100956.34;144992;626;6004;-88
2021/12/09 11:06:13;;;;;;;4.25;1.42;;;;;;;18.02;45.74;100961.56;144992;634;6004;-85
2021/12/09 11:09:03;;;;;;;3.17;0.90;;;;;;;18.09;45.14;100958.09;144992;571;6004;-85
2021/12/09 11:11:34;;;;;;;4.25;1.10;;;;;;;18.09;44.94;100950.19;144992;586;6002;-84
2021/12/09 11:14:18;;;;;;;3.28;1.20;;;;;;;17.92;45.36;100945.75;144992;689;6002;-85
2021/12/09 11:17:04;;;;;;;2.05;0.88;;;;;;;17.78;45.86;100942.19;144992;583;6002;-86
2021/12/09 11:19:41;;;;;;;4.68;1.30;;;;;;;18.18;44.89;100933.56;144992;577;6002;-85
2021/12/09 11:22:18;;;;;;;2.42;0.90;;;;;;;18.27;44.60;100925.72;144991;587;6002;-85
2021/12/09 11:24:49;;;;;;;2.58;1.10;;;;;;;18.35;44.67;100916.06;144992;593;6002;-83
2021/12/09 11:27:23;;;;;;;2.92;1.30;;;;;;;18.29;45.17;100918.69;144992;564;6002;-85
2021/12/09 11:29:53;;;;;;;2.57;1.33;;;;;;;18.39;45.01;100914.31;144992;640;6002;-84
2021/12/09 11:35:27;;;;;;;5.15;1.37;;;;;;;18.17;45.87;100902.94;144992;579;6004;-87
2021/12/09 11:38:18;;;;;;;3.20;1.08;;;;;;;18.13;47.22;100912.53;144992;685;6004;-83
2021/12/09 11:40:55;;;;;;;3.08;1.40;;;;;;;18.38;45.25;100897.69;144992;614;6004;-86
2021/12/09 11:43:34;;;;;;;2.95;1.30;;;;;;;18.07;45.47;100897.66;144992;632;6004;-86
2021/12/09 11:46:00;;;;;;;9.80;4.93;;;;;;;18.26;44.57;100897.66;144992;603;6004;-85
2021/12/09 11:48:27;;;;;;;6.62;2.95;;;;;;;18.38;45.20;100887.16;144992;582;6004;-85
2021/12/09 11:50:54;;;;;;;4.32;1.45;;;;;;;18.10;45.79;100886.25;144992;643;6004;-85
2021/12/09 11:53:24;;;;;;;6.20;1.50;;;;;;;18.17;45.87;100884.53;144992;566;6004;-84
2021/12/09 11:56:02;;;;;;;4.43;1.60;;;;;;;18.31;46.15;100881.03;144992;592;6004;-85
2021/12/09 11:58:32;;;;;;;5.82;2.25;;;;;;;18.20;46.30;100861.78;144992;615;6004;-85
2021/12/09 12:13:44;;;;;;;4.93;1.52;;;;;;;18.19;46.88;100853.87;144992;597;6002;-85